createdAt,value
2019-02-21T00:02:15.725Z,51.00
2019-02-21T00:04:43.970Z,50.90
2019-02-21T00:07:12.201Z,50.90
2019-02-21T00:09:40.441Z,50.90
2019-02-21T00:12:08.669Z,51.20
2019-02-21T00:14:37.079Z,50.90
2019-02-21T00:17:05.321Z,50.90
2019-02-21T00:19:33.572Z,50.90
2019-02-21T00:22:01.797Z,51.00
2019-02-21T00:24:30.038Z,50.90
2019-02-21T00:26:58.278Z,50.90
2019-02-21T00:29:26.525Z,51.00
2019-02-21T00:31:54.749Z,50.90
2019-02-21T00:34:22.998Z,50.80
2019-02-21T00:36:51.229Z,50.90
2019-02-21T00:39:19.486Z,50.80
2019-02-21T00:41:47.720Z,50.90
2019-02-21T00:44:15.971Z,51.00
2019-02-21T00:46:44.201Z,50.80
2019-02-21T00:49:12.446Z,50.80
2019-02-21T00:51:40.682Z,50.90
2019-02-21T00:54:08.933Z,50.80
2019-02-21T00:56:37.169Z,50.80
2019-02-21T00:59:05.420Z,50.90
2019-02-21T01:01:34.318Z,50.80
2019-02-21T01:04:02.563Z,50.90
2019-02-21T01:06:31.461Z,50.90
2019-02-21T01:09:00.382Z,50.90
2019-02-21T01:11:28.609Z,50.80
2019-02-21T01:13:56.861Z,50.80
2019-02-21T01:16:25.091Z,50.80
2019-02-21T01:18:53.336Z,50.80
2019-02-21T01:21:21.561Z,50.90
2019-02-21T01:23:49.809Z,50.90
2019-02-21T01:26:18.045Z,50.80
2019-02-21T01:28:46.289Z,50.80
2019-02-21T01:31:14.597Z,50.90
2019-02-21T01:33:43.677Z,50.90
2019-02-21T01:36:11.915Z,50.90
2019-02-21T01:38:40.154Z,50.30
2019-02-21T01:41:08.461Z,50.80
2019-02-21T01:43:36.696Z,50.90
2019-02-21T01:46:05.005Z,50.90
2019-02-21T01:48:33.562Z,51.00
2019-02-21T01:51:01.870Z,50.90
2019-02-21T01:53:30.125Z,50.90
2019-02-21T01:55:59.062Z,51.00
2019-02-21T01:58:27.298Z,51.00
2019-02-21T02:00:55.613Z,51.00
2019-02-21T02:03:23.841Z,51.00
2019-02-21T02:05:52.726Z,51.00
2019-02-21T02:08:21.025Z,51.00
2019-02-21T02:10:49.268Z,51.00
2019-02-21T02:13:24.477Z,51.00
2019-02-21T02:15:47.537Z,51.00
2019-02-21T02:18:15.765Z,51.00
2019-02-21T02:20:44.010Z,51.00
2019-02-21T02:23:12.254Z,51.00
2019-02-21T02:25:40.497Z,51.00
2019-02-21T02:28:08.866Z,51.00
2019-02-21T02:30:37.186Z,51.00
2019-02-21T02:33:05.435Z,51.00
2019-02-21T02:35:33.734Z,51.00
2019-02-21T02:38:01.972Z,51.00
2019-02-21T02:40:30.230Z,51.70
2019-02-21T02:42:58.465Z,51.00
2019-02-21T02:45:26.713Z,51.00
2019-02-21T02:47:55.242Z,51.10
2019-02-21T02:50:23.490Z,51.00
2019-02-21T02:52:52.390Z,51.00
2019-02-21T02:55:20.634Z,51.00
2019-02-21T02:57:48.871Z,51.10
2019-02-21T03:00:17.120Z,50.90
2019-02-21T03:02:45.352Z,50.90
2019-02-21T03:05:13.612Z,51.00
2019-02-21T03:07:41.838Z,51.00
2019-02-21T03:10:11.817Z,51.00
2019-02-21T03:12:40.051Z,51.10
2019-02-21T03:15:08.669Z,51.00
2019-02-21T03:17:37.572Z,51.00
2019-02-21T03:20:08.053Z,51.00
2019-02-21T03:22:37.070Z,51.00
2019-02-21T03:25:06.838Z,51.00
2019-02-21T03:27:35.089Z,51.00
2019-02-21T03:30:03.498Z,51.00
2019-02-21T03:32:31.812Z,50.90
2019-02-21T03:35:00.052Z,50.90
2019-02-21T03:37:28.358Z,51.00
2019-02-21T03:39:56.586Z,51.00
2019-02-21T03:42:24.831Z,51.10
2019-02-21T03:44:53.064Z,51.10
2019-02-21T03:47:21.387Z,51.10
2019-02-21T03:49:49.608Z,51.00
2019-02-21T03:52:17.849Z,51.10
2019-02-21T03:54:46.080Z,51.00
2019-02-21T03:57:14.321Z,51.80
2019-02-21T03:59:42.626Z,51.00
2019-02-21T04:02:12.498Z,51.60
2019-02-21T04:04:40.730Z,51.00
2019-02-21T04:07:08.969Z,51.00
2019-02-21T04:09:37.274Z,51.00
2019-02-21T04:12:05.514Z,51.00
2019-02-21T04:14:33.982Z,51.00
2019-02-21T04:17:02.221Z,51.10
2019-02-21T04:19:30.454Z,51.10
2019-02-21T04:21:58.702Z,51.10
2019-02-21T04:24:26.940Z,51.00
2019-02-21T04:26:55.177Z,51.10
2019-02-21T04:29:23.479Z,51.10
2019-02-21T04:31:51.717Z,51.10
2019-02-21T04:34:20.022Z,51.10
2019-02-21T04:36:49.898Z,51.10
2019-02-21T04:39:18.129Z,51.10
2019-02-21T04:41:46.376Z,51.10
2019-02-21T04:44:16.402Z,51.10
2019-02-21T04:46:44.762Z,51.10
2019-02-21T04:49:14.634Z,51.10
2019-02-21T04:51:42.888Z,51.00
2019-02-21T04:54:11.113Z,51.10
2019-02-21T04:56:39.354Z,51.10
2019-02-21T04:59:07.585Z,51.10
2019-02-21T05:01:35.829Z,51.10
2019-02-21T05:04:04.919Z,51.10
2019-02-21T05:06:33.482Z,51.10
2019-02-21T05:09:01.723Z,51.10
2019-02-21T05:11:30.258Z,51.10
2019-02-21T05:13:58.502Z,51.10
2019-02-21T05:16:26.734Z,51.10
2019-02-21T05:18:54.977Z,51.10
2019-02-21T05:21:23.214Z,51.10
2019-02-21T05:23:51.453Z,51.10
2019-02-21T05:26:21.326Z,51.10
2019-02-21T05:28:49.575Z,51.10
2019-02-21T05:31:22.298Z,51.10
2019-02-21T05:33:55.144Z,51.10
2019-02-21T05:36:34.055Z,51.10
2019-02-21T05:39:03.932Z,51.00
2019-02-21T05:41:52.042Z,51.10
2019-02-21T05:44:38.330Z,51.10
2019-02-21T05:47:23.513Z,51.10
2019-02-21T05:50:08.725Z,51.10
2019-02-21T05:52:53.709Z,51.20
2019-02-21T05:55:26.535Z,51.10
2019-02-21T05:57:59.075Z,51.10
2019-02-21T06:00:36.960Z,51.20
2019-02-21T06:03:22.826Z,51.10
2019-02-21T06:06:05.073Z,51.10
2019-02-21T06:08:40.851Z,51.10
2019-02-21T06:11:18.111Z,51.20
2019-02-21T06:14:04.466Z,51.20
2019-02-21T06:16:38.818Z,51.30
2019-02-21T06:19:11.391Z,51.20
2019-02-21T06:21:50.975Z,51.20
2019-02-21T06:24:37.372Z,51.20
2019-02-21T06:27:22.497Z,51.20
2019-02-21T06:29:58.144Z,51.30
2019-02-21T06:32:26.430Z,51.20
2019-02-21T06:34:54.705Z,51.20
2019-02-21T06:37:22.933Z,51.20
2019-02-21T06:39:51.185Z,51.10
2019-02-21T06:42:19.417Z,51.10
2019-02-21T06:44:47.738Z,51.20
2019-02-21T06:47:15.969Z,51.10
2019-02-21T06:49:44.213Z,51.10
2019-02-21T06:52:12.443Z,51.10
2019-02-21T06:54:40.687Z,51.10
2019-02-21T06:57:08.993Z,51.10
2019-02-21T06:59:43.376Z,51.10
2019-02-21T07:02:07.197Z,51.10
2019-02-21T07:04:35.446Z,51.10
2019-02-21T07:07:03.682Z,51.20
2019-02-21T07:09:31.920Z,51.10
2019-02-21T07:12:00.149Z,51.10
2019-02-21T07:14:28.381Z,51.10
2019-02-21T07:16:56.632Z,51.10
2019-02-21T07:19:24.866Z,51.20
2019-02-21T07:21:53.177Z,51.10
2019-02-21T07:24:21.578Z,51.10
2019-02-21T07:26:49.822Z,51.10
2019-02-21T07:29:18.049Z,51.20
2019-02-21T07:31:46.361Z,51.10
2019-02-21T07:34:14.665Z,51.10
2019-02-21T07:36:42.914Z,51.10
2019-02-21T07:39:17.179Z,51.40
2019-02-21T07:41:41.809Z,51.10
2019-02-21T07:44:12.333Z,51.20
2019-02-21T07:46:40.182Z,51.10
2019-02-21T07:49:08.481Z,51.20
2019-02-21T07:51:36.795Z,51.10
2019-02-21T07:54:05.030Z,51.10
2019-02-21T07:56:41.668Z,51.20
2019-02-21T07:59:03.296Z,51.10
2019-02-21T08:01:31.542Z,51.10
2019-02-21T08:03:59.773Z,51.10
2019-02-21T08:06:28.095Z,51.10
2019-02-21T08:08:56.330Z,51.70
2019-02-21T08:11:25.410Z,51.20
2019-02-21T08:13:53.642Z,51.10
2019-02-21T08:16:21.884Z,51.10
2019-02-21T08:18:50.147Z,51.20
2019-02-21T08:21:18.425Z,51.10
2019-02-21T08:23:50.475Z,51.10
2019-02-21T08:26:16.637Z,51.10
2019-02-21T08:28:44.869Z,51.20
2019-02-21T08:31:13.135Z,51.10
2019-02-21T08:33:45.619Z,51.10
2019-02-21T08:36:12.966Z,51.10
2019-02-21T08:38:41.204Z,51.10
2019-02-21T08:41:09.437Z,51.10
2019-02-21T08:43:37.690Z,51.10
2019-02-21T08:46:05.918Z,51.10
2019-02-21T08:48:34.157Z,51.10
2019-02-21T08:51:02.397Z,51.10
2019-02-21T08:53:30.648Z,51.10
2019-02-21T08:55:58.956Z,51.00
2019-02-21T08:58:27.293Z,51.00
2019-02-21T09:00:55.522Z,51.00
2019-02-21T09:03:23.844Z,51.00
2019-02-21T09:05:52.074Z,50.90
2019-02-21T09:08:20.317Z,50.90
2019-02-21T09:10:48.550Z,50.90
2019-02-21T09:13:16.800Z,50.90
2019-02-21T09:15:46.557Z,50.90
2019-02-21T09:18:14.948Z,50.90
2019-02-21T09:20:43.272Z,50.90
2019-02-21T09:23:11.503Z,50.90
2019-02-21T09:25:39.733Z,50.90
2019-02-21T09:28:07.974Z,51.00
2019-02-21T09:30:36.209Z,51.00
2019-02-21T09:33:04.453Z,51.00
2019-02-21T09:35:32.682Z,51.10
2019-02-21T09:38:00.926Z,51.00
2019-02-21T09:40:29.157Z,50.90
2019-02-21T09:42:57.413Z,50.90
2019-02-21T09:45:25.650Z,50.90
2019-02-21T09:47:53.901Z,50.90
2019-02-21T09:50:22.136Z,50.90
2019-02-21T09:52:50.453Z,50.90
2019-02-21T09:55:18.753Z,50.90
2019-02-21T09:57:46.982Z,50.90
2019-02-21T10:00:19.900Z,50.90
2019-02-21T10:02:48.185Z,50.90
2019-02-21T10:05:16.443Z,51.10
2019-02-21T10:07:44.662Z,51.10
2019-02-21T10:10:15.000Z,51.10
2019-02-21T10:12:43.255Z,51.10
2019-02-21T10:15:13.241Z,51.10
2019-02-21T10:17:41.544Z,51.10
2019-02-21T10:20:12.122Z,51.00
2019-02-21T10:22:40.357Z,51.10
2019-02-21T10:25:11.601Z,51.00
2019-02-21T10:27:39.842Z,51.00
2019-02-21T10:30:13.324Z,51.00
2019-02-21T10:32:41.333Z,51.00
2019-02-21T10:35:09.573Z,51.00
2019-02-21T10:37:37.801Z,51.00
2019-02-21T10:40:08.748Z,51.00
2019-02-21T10:42:37.114Z,51.10
2019-02-21T10:45:08.460Z,51.10
2019-02-21T10:47:36.692Z,51.10
2019-02-21T10:50:14.252Z,51.20
2019-02-21T10:52:42.775Z,51.10
2019-02-21T10:55:11.273Z,51.20
2019-02-21T10:57:39.510Z,51.30
2019-02-21T11:00:13.962Z,51.20
2019-02-21T11:02:42.189Z,51.80
2019-02-21T11:05:11.361Z,51.30
2019-02-21T11:07:39.589Z,51.20
2019-02-21T11:10:13.257Z,51.10
2019-02-21T11:12:41.490Z,51.10
2019-02-21T11:15:15.498Z,51.20
2019-02-21T11:17:43.729Z,51.10
2019-02-21T11:20:14.321Z,51.20
2019-02-21T11:22:42.559Z,51.20
2019-02-21T11:25:12.073Z,51.20
2019-02-21T11:27:40.314Z,51.30
2019-02-21T11:30:13.857Z,51.30
2019-02-21T11:32:42.085Z,51.20
2019-02-21T11:35:10.405Z,51.20
2019-02-21T11:37:43.295Z,51.20
2019-02-21T11:40:11.313Z,51.20
2019-02-21T11:42:39.617Z,51.20
2019-02-21T11:45:15.930Z,51.20
2019-02-21T11:47:44.234Z,51.20
2019-02-21T11:50:14.878Z,51.20
2019-02-21T11:52:43.118Z,51.20
2019-02-21T11:55:14.615Z,51.10
2019-02-21T11:57:42.869Z,51.10
2019-02-21T12:00:17.029Z,51.30
2019-02-21T12:02:45.257Z,51.20
2019-02-21T12:05:17.534Z,51.30
2019-02-21T12:07:43.461Z,51.30
2019-02-21T12:10:12.230Z,51.30
2019-02-21T12:12:40.655Z,51.50
2019-02-21T12:15:11.377Z,51.20
2019-02-21T12:17:42.309Z,51.20
2019-02-21T12:20:14.594Z,51.20
2019-02-21T12:22:42.864Z,51.20
2019-02-21T12:25:13.593Z,51.20
2019-02-21T12:27:41.845Z,51.20
2019-02-21T12:30:12.416Z,51.20
2019-02-21T12:32:40.664Z,51.20
2019-02-21T12:35:10.545Z,51.10
2019-02-21T12:37:39.070Z,51.60
2019-02-21T12:40:10.432Z,51.30
2019-02-21T12:42:38.677Z,51.30
2019-02-21T12:45:10.251Z,51.30
2019-02-21T12:47:49.020Z,51.30
2019-02-21T12:50:10.087Z,51.30
2019-02-21T12:52:38.330Z,51.30
2019-02-21T12:55:08.910Z,51.30
2019-02-21T12:57:37.141Z,51.30
2019-02-21T13:00:08.722Z,51.20
2019-02-21T13:02:36.964Z,51.30
2019-02-21T13:05:06.229Z,51.20
2019-02-21T13:07:34.477Z,51.30
2019-02-21T13:10:02.975Z,51.20
2019-02-21T13:12:31.217Z,51.20
2019-02-21T13:14:59.444Z,51.20
2019-02-21T13:17:27.685Z,51.20
2019-02-21T13:19:55.918Z,51.30
2019-02-21T13:22:24.173Z,51.30
2019-02-21T13:24:52.404Z,51.30
2019-02-21T13:27:20.637Z,51.30
2019-02-21T13:29:48.882Z,51.30
2019-02-21T13:32:17.119Z,51.30
2019-02-21T13:34:45.361Z,51.30
2019-02-21T13:37:13.596Z,51.30
2019-02-21T13:39:41.837Z,51.30
2019-02-21T13:42:10.066Z,51.30
2019-02-21T13:44:38.306Z,51.30
2019-02-21T13:47:06.605Z,51.30
2019-02-21T13:49:34.853Z,51.30
2019-02-21T13:52:03.085Z,51.20
2019-02-21T13:54:31.329Z,51.30
2019-02-21T13:56:59.563Z,51.30
2019-02-21T13:59:27.806Z,51.30
2019-02-21T14:01:56.037Z,51.30
2019-02-21T14:04:24.354Z,51.40
2019-02-21T14:06:52.585Z,51.30
2019-02-21T14:09:21.292Z,51.40
2019-02-21T14:11:49.531Z,51.30
2019-02-21T14:14:17.800Z,51.40
2019-02-21T14:16:46.993Z,51.40
2019-02-21T14:19:15.448Z,51.40
2019-02-21T14:21:43.916Z,51.30
2019-02-21T14:24:12.301Z,51.40
2019-02-21T14:26:40.533Z,51.40
2019-02-21T14:29:08.774Z,51.40
2019-02-21T14:31:37.005Z,51.30
2019-02-21T14:34:05.249Z,51.30
2019-02-21T14:36:33.477Z,51.30
2019-02-21T14:39:01.722Z,51.40
2019-02-21T14:41:29.958Z,51.40
2019-02-21T14:44:00.425Z,51.30
2019-02-21T14:46:28.167Z,51.40
2019-02-21T14:48:56.394Z,52.00
2019-02-21T14:51:24.719Z,51.40
2019-02-21T14:53:52.955Z,51.30
2019-02-21T14:56:21.198Z,51.30
2019-02-21T14:58:49.443Z,51.40
2019-02-21T15:01:17.677Z,51.40
2019-02-21T15:03:45.918Z,51.30
2019-02-21T15:06:14.344Z,51.30
2019-02-21T15:08:42.652Z,51.30
2019-02-21T15:11:10.962Z,51.30
2019-02-21T15:13:39.189Z,51.30
2019-02-21T15:16:07.705Z,51.40
2019-02-21T15:18:36.014Z,51.50
2019-02-21T15:21:04.258Z,51.40
2019-02-21T15:23:32.490Z,51.30
2019-02-21T15:26:01.038Z,52.40
2019-02-21T15:28:29.269Z,53.10
2019-02-21T15:30:59.150Z,52.30
2019-02-21T15:33:27.376Z,52.00
2019-02-21T15:35:55.618Z,52.10
2019-02-21T15:38:24.020Z,51.90
2019-02-21T15:40:54.080Z,51.70
2019-02-21T15:43:22.305Z,51.70
2019-02-21T15:45:50.570Z,51.60
2019-02-21T15:48:18.954Z,51.40
2019-02-21T15:50:47.317Z,51.50
2019-02-21T15:53:15.557Z,51.90
2019-02-21T15:55:43.803Z,51.50
2019-02-21T15:58:12.047Z,51.60
2019-02-21T16:00:40.281Z,51.70
2019-02-21T16:03:08.521Z,51.50
2019-02-21T16:05:36.751Z,51.50
2019-02-21T16:08:04.994Z,51.60
2019-02-21T16:10:33.223Z,51.50
2019-02-21T16:13:04.296Z,51.50
2019-02-21T16:15:31.433Z,51.50
2019-02-21T16:17:59.683Z,51.50
2019-02-21T16:20:27.959Z,51.60
2019-02-21T16:22:56.342Z,51.50
2019-02-21T16:25:30.021Z,51.60
2019-02-21T16:27:58.261Z,51.40
2019-02-21T16:30:26.500Z,51.40
2019-02-21T16:32:55.018Z,51.40
2019-02-21T16:35:23.245Z,51.40
2019-02-21T16:37:51.497Z,51.50
2019-02-21T16:40:20.271Z,51.50
2019-02-21T16:42:48.517Z,51.50
2019-02-21T16:45:20.642Z,51.60
2019-02-21T16:47:48.881Z,51.50
2019-02-21T16:50:28.834Z,51.40
2019-02-21T16:52:47.249Z,51.40
2019-02-21T16:55:20.046Z,51.40
2019-02-21T16:57:48.829Z,51.50
2019-02-21T17:00:19.671Z,51.40
2019-02-21T17:02:47.907Z,51.50
2019-02-21T17:05:16.211Z,51.50
2019-02-21T17:07:44.456Z,51.50
2019-02-21T17:10:14.321Z,51.70
2019-02-21T17:12:42.565Z,51.70
2019-02-21T17:15:15.607Z,51.80
2019-02-21T17:17:43.875Z,51.90
2019-02-21T17:20:20.020Z,51.80
2019-02-21T17:22:48.262Z,51.90
2019-02-21T17:25:16.651Z,51.80
2019-02-21T17:27:45.705Z,51.80
2019-02-21T17:30:18.546Z,51.70
2019-02-21T17:32:46.796Z,51.80
2019-02-21T17:35:15.187Z,51.80
2019-02-21T17:37:43.404Z,51.70
2019-02-21T17:40:20.482Z,51.70
2019-02-21T17:42:48.722Z,51.60
2019-02-21T17:45:16.961Z,51.70
2019-02-21T17:47:45.191Z,51.80
2019-02-21T17:50:17.697Z,51.70
2019-02-21T17:52:45.930Z,51.70
2019-02-21T17:55:14.914Z,51.80
2019-02-21T17:57:43.220Z,51.70
2019-02-21T18:00:16.898Z,51.70
2019-02-21T18:02:44.218Z,51.80
2019-02-21T18:05:13.035Z,51.70
2019-02-21T18:07:41.266Z,51.80
2019-02-21T18:10:15.501Z,51.70
2019-02-21T18:12:43.734Z,51.90
2019-02-21T18:15:15.727Z,51.90
2019-02-21T18:17:43.968Z,52.30
2019-02-21T18:20:15.694Z,52.50
2019-02-21T18:22:44.259Z,52.20
2019-02-21T18:25:33.597Z,52.10
2019-02-21T18:28:01.831Z,52.00
2019-02-21T18:30:30.078Z,53.30
2019-02-21T18:32:58.305Z,52.90
2019-02-21T18:35:26.549Z,52.70
2019-02-21T18:37:54.797Z,52.50
2019-02-21T18:40:25.434Z,52.20
2019-02-21T18:42:53.743Z,52.30
2019-02-21T18:45:21.990Z,52.20
2019-02-21T18:47:50.458Z,52.00
2019-02-21T18:50:18.696Z,52.10
2019-02-21T18:52:46.942Z,52.00
2019-02-21T18:55:15.189Z,52.00
2019-02-21T18:57:43.425Z,51.80
2019-02-21T19:00:24.159Z,51.60
2019-02-21T19:02:52.382Z,51.80
2019-02-21T19:05:21.370Z,51.70
2019-02-21T19:08:00.452Z,51.70
2019-02-21T19:10:20.821Z,51.80
2019-02-21T19:12:49.102Z,51.60
2019-02-21T19:15:19.266Z,51.60
2019-02-21T19:17:47.991Z,51.50
2019-02-21T19:20:17.761Z,51.60
2019-02-21T19:22:47.637Z,51.50
2019-02-21T19:25:15.872Z,51.40
2019-02-21T19:27:44.194Z,51.50
2019-02-21T19:30:25.776Z,51.60
2019-02-21T19:32:54.185Z,51.50
2019-02-21T19:35:22.421Z,51.50
2019-02-21T19:37:50.685Z,51.40
2019-02-21T19:40:18.919Z,51.50
2019-02-21T19:42:47.173Z,51.50
2019-02-21T19:45:15.409Z,51.60
2019-02-21T19:47:43.654Z,51.60
2019-02-21T19:50:11.886Z,51.50
2019-02-21T19:52:40.130Z,51.60
2019-02-21T19:55:09.801Z,51.40
2019-02-21T19:57:38.113Z,51.40
2019-02-21T20:00:13.201Z,51.40
2019-02-21T20:02:41.512Z,51.50
2019-02-21T20:05:09.742Z,51.50
2019-02-21T20:07:38.050Z,51.60
2019-02-21T20:10:08.025Z,51.50
2019-02-21T20:12:36.985Z,51.60
2019-02-21T20:15:07.666Z,51.60
2019-02-21T20:17:35.933Z,51.60
2019-02-21T20:20:06.965Z,51.60
2019-02-21T20:22:35.205Z,51.60
2019-02-21T20:25:05.251Z,51.60
2019-02-21T20:27:33.482Z,51.60
2019-02-21T20:30:01.727Z,51.60
2019-02-21T20:32:30.530Z,51.60
2019-02-21T20:34:58.778Z,51.60
2019-02-21T20:37:27.022Z,51.60
2019-02-21T20:39:55.278Z,51.60
2019-02-21T20:42:23.561Z,51.60
2019-02-21T20:44:51.803Z,51.50
2019-02-21T20:47:20.034Z,51.60
2019-02-21T20:49:48.290Z,51.60
2019-02-21T20:52:16.602Z,51.60
2019-02-21T20:54:44.917Z,51.60
2019-02-21T20:57:13.218Z,51.60
2019-02-21T20:59:41.461Z,51.70
2019-02-21T21:02:09.770Z,51.70
2019-02-21T21:04:38.013Z,51.80
2019-02-21T21:07:06.362Z,51.70
2019-02-21T21:09:34.606Z,51.70
2019-02-21T21:12:02.837Z,51.70
2019-02-21T21:14:31.076Z,51.70
2019-02-21T21:16:59.310Z,51.80
2019-02-21T21:19:27.557Z,51.70
2019-02-21T21:21:55.857Z,51.80
2019-02-21T21:24:24.169Z,51.80
2019-02-21T21:26:52.498Z,52.40
2019-02-21T21:29:20.732Z,51.80
2019-02-21T21:31:48.958Z,51.90
2019-02-21T21:34:17.537Z,51.90
2019-02-21T21:36:45.761Z,51.90
2019-02-21T21:39:13.997Z,51.90
2019-02-21T21:41:42.244Z,51.90
2019-02-21T21:44:10.470Z,52.00
2019-02-21T21:46:38.730Z,52.00
2019-02-21T21:49:06.953Z,51.90
2019-02-21T21:51:35.194Z,51.90
2019-02-21T21:54:03.434Z,52.00
2019-02-21T21:56:31.674Z,52.00
2019-02-21T21:58:59.905Z,51.90
2019-02-21T22:01:28.212Z,52.00
2019-02-21T22:03:56.441Z,52.00
2019-02-21T22:06:24.681Z,51.90
2019-02-21T22:08:52.909Z,51.90
2019-02-21T22:11:21.150Z,52.00
2019-02-21T22:13:49.386Z,51.90
2019-02-21T22:16:17.637Z,51.90
2019-02-21T22:18:45.873Z,51.90
2019-02-21T22:21:14.113Z,51.90
2019-02-21T22:23:42.338Z,52.00
2019-02-21T22:26:10.583Z,52.00
2019-02-21T22:28:38.805Z,52.10
2019-02-21T22:31:07.070Z,52.70
2019-02-21T22:33:36.300Z,52.10
2019-02-21T22:36:04.810Z,52.10
2019-02-21T22:38:33.080Z,52.00
2019-02-21T22:41:01.329Z,52.10
2019-02-21T22:43:29.555Z,52.10
2019-02-21T22:45:57.778Z,52.00
2019-02-21T22:48:26.200Z,51.90
2019-02-21T22:50:54.443Z,51.90
2019-02-21T22:53:22.665Z,52.00
2019-02-21T22:55:50.966Z,51.90
2019-02-21T22:58:19.226Z,51.90
2019-02-21T23:00:58.166Z,51.90
2019-02-21T23:03:41.985Z,52.00
2019-02-21T23:06:28.635Z,51.90
2019-02-21T23:08:56.913Z,51.90
2019-02-21T23:11:25.146Z,51.90
2019-02-21T23:13:54.674Z,52.00
2019-02-21T23:16:22.909Z,52.00
2019-02-21T23:18:51.190Z,51.90
2019-02-21T23:21:19.485Z,52.00
2019-02-21T23:23:47.733Z,52.00
2019-02-21T23:26:15.949Z,52.00
2019-02-21T23:28:44.190Z,51.90
2019-02-21T23:31:12.421Z,51.90
2019-02-21T23:33:51.463Z,51.90
2019-02-21T23:36:19.702Z,51.90
2019-02-21T23:38:47.949Z,52.00
2019-02-21T23:41:16.186Z,51.90
2019-02-21T23:43:47.077Z,51.90
2019-02-21T23:46:14.388Z,52.00
2019-02-21T23:48:42.631Z,51.90
2019-02-21T23:51:10.862Z,51.90
2019-02-21T23:53:39.098Z,51.90
2019-02-21T23:56:08.969Z,51.80
2019-02-21T23:58:37.212Z,51.90
